sensor_id;sensor_type;location;lat;lon;timestamp;P1;durP1;ratioP1;P2;durP2;ratioP2
4957;SDS011;2494;51.872;9.688;2023-05-07T00:01:21;27.70;;;22.70;;
4957;SDS011;2494;51.872;9.688;2023-05-07T00:04:07;29.50;;;24.73;;
4957;SDS011;2494;51.872;9.688;2023-05-07T00:06:53;27.30;;;23.00;;
4957;SDS011;2494;51.872;9.688;2023-05-07T00:09:39;30.60;;;23.27;;
4957;SDS011;2494;51.872;9.688;2023-05-07T00:12:23;31.53;;;23.90;;
4957;SDS011;2494;51.872;9.688;2023-05-07T00:15:09;26.80;;;23.17;;
4957;SDS011;2494;51.872;9.688;2023-05-07T00:17:55;27.60;;;23.40;;
4957;SDS011;2494;51.872;9.688;2023-05-07T00:20:41;29.93;;;25.63;;
4957;SDS011;2494;51.872;9.688;2023-05-07T00:23:27;28.30;;;22.90;;
4957;SDS011;2494;51.872;9.688;2023-05-07T00:26:13;36.13;;;27.20;;
4957;SDS011;2494;51.872;9.688;2023-05-07T00:28:58;33.47;;;23.43;;
4957;SDS011;2494;51.872;9.688;2023-05-07T00:31:43;26.93;;;24.13;;
4957;SDS011;2494;51.872;9.688;2023-05-07T00:34:28;27.40;;;24.47;;
4957;SDS011;2494;51.872;9.688;2023-05-07T00:37:13;31.57;;;26.83;;
4957;SDS011;2494;51.872;9.688;2023-05-07T00:39:59;28.80;;;24.50;;
4957;SDS011;2494;51.872;9.688;2023-05-07T00:42:46;28.47;;;24.50;;
4957;SDS011;2494;51.872;9.688;2023-05-07T00:45:32;32.73;;;26.40;;
4957;SDS011;2494;51.872;9.688;2023-05-07T00:48:17;29.67;;;25.23;;
4957;SDS011;2494;51.872;9.688;2023-05-07T00:51:03;33.67;;;24.73;;
4957;SDS011;2494;51.872;9.688;2023-05-07T00:53:48;28.40;;;24.23;;
4957;SDS011;2494;51.872;9.688;2023-05-07T00:56:35;29.60;;;25.37;;
4957;SDS011;2494;51.872;9.688;2023-05-07T00:59:23;30.30;;;27.00;;
4957;SDS011;2494;51.872;9.688;2023-05-07T01:02:08;32.20;;;25.90;;
4957;SDS011;2494;51.872;9.688;2023-05-07T01:04:53;28.70;;;23.37;;
4957;SDS011;2494;51.872;9.688;2023-05-07T01:07:40;28.27;;;25.17;;
4957;SDS011;2494;51.872;9.688;2023-05-07T01:10:25;28.53;;;24.47;;
4957;SDS011;2494;51.872;9.688;2023-05-07T01:13:15;33.27;;;25.80;;
4957;SDS011;2494;51.872;9.688;2023-05-07T01:16:00;27.33;;;24.43;;
4957;SDS011;2494;51.872;9.688;2023-05-07T01:18:46;28.87;;;25.13;;
4957;SDS011;2494;51.872;9.688;2023-05-07T01:21:32;33.10;;;26.60;;
4957;SDS011;2494;51.872;9.688;2023-05-07T01:24:19;32.20;;;26.30;;
4957;SDS011;2494;51.872;9.688;2023-05-07T01:27:04;31.17;;;25.17;;
4957;SDS011;2494;51.872;9.688;2023-05-07T01:29:49;29.93;;;24.73;;
4957;SDS011;2494;51.872;9.688;2023-05-07T01:32:36;32.70;;;26.37;;
4957;SDS011;2494;51.872;9.688;2023-05-07T01:35:24;35.50;;;25.60;;
4957;SDS011;2494;51.872;9.688;2023-05-07T01:38:09;35.30;;;27.87;;
4957;SDS011;2494;51.872;9.688;2023-05-07T01:40:56;37.40;;;26.50;;
4957;SDS011;2494;51.872;9.688;2023-05-07T01:43:42;31.40;;;26.37;;
4957;SDS011;2494;51.872;9.688;2023-05-07T01:46:28;35.80;;;26.47;;
4957;SDS011;2494;51.872;9.688;2023-05-07T01:49:13;32.97;;;27.10;;
4957;SDS011;2494;51.872;9.688;2023-05-07T01:51:59;37.03;;;27.77;;
4957;SDS011;2494;51.872;9.688;2023-05-07T01:54:44;32.07;;;26.90;;
4957;SDS011;2494;51.872;9.688;2023-05-07T01:57:31;38.50;;;28.63;;
4957;SDS011;2494;51.872;9.688;2023-05-07T02:00:16;36.50;;;27.80;;
4957;SDS011;2494;51.872;9.688;2023-05-07T02:03:02;35.10;;;29.00;;
4957;SDS011;2494;51.872;9.688;2023-05-07T02:05:48;34.13;;;27.27;;
4957;SDS011;2494;51.872;9.688;2023-05-07T02:08:33;33.10;;;26.70;;
4957;SDS011;2494;51.872;9.688;2023-05-07T02:11:17;33.47;;;27.37;;
4957;SDS011;2494;51.872;9.688;2023-05-07T02:14:04;36.17;;;26.97;;
4957;SDS011;2494;51.872;9.688;2023-05-07T02:16:49;30.03;;;26.77;;
4957;SDS011;2494;51.872;9.688;2023-05-07T02:19:34;30.63;;;25.83;;
4957;SDS011;2494;51.872;9.688;2023-05-07T02:22:19;36.33;;;26.93;;
4957;SDS011;2494;51.872;9.688;2023-05-07T02:25:08;36.20;;;26.03;;
4957;SDS011;2494;51.872;9.688;2023-05-07T02:27:53;32.50;;;27.37;;
4957;SDS011;2494;51.872;9.688;2023-05-07T02:30:40;33.23;;;26.67;;
4957;SDS011;2494;51.872;9.688;2023-05-07T02:33:25;35.67;;;27.03;;
4957;SDS011;2494;51.872;9.688;2023-05-07T02:36:11;32.80;;;27.37;;
4957;SDS011;2494;51.872;9.688;2023-05-07T02:38:56;29.13;;;24.37;;
4957;SDS011;2494;51.872;9.688;2023-05-07T02:41:41;36.37;;;28.00;;
4957;SDS011;2494;51.872;9.688;2023-05-07T02:44:26;35.67;;;27.53;;
4957;SDS011;2494;51.872;9.688;2023-05-07T02:47:16;30.60;;;26.20;;
4957;SDS011;2494;51.872;9.688;2023-05-07T02:50:02;34.77;;;28.73;;
4957;SDS011;2494;51.872;9.688;2023-05-07T02:52:47;38.00;;;30.03;;
4957;SDS011;2494;51.872;9.688;2023-05-07T02:55:32;33.97;;;25.90;;
4957;SDS011;2494;51.872;9.688;2023-05-07T02:58:17;32.07;;;25.70;;
4957;SDS011;2494;51.872;9.688;2023-05-07T03:01:02;33.70;;;27.00;;
4957;SDS011;2494;51.872;9.688;2023-05-07T03:03:49;38.00;;;26.80;;
4957;SDS011;2494;51.872;9.688;2023-05-07T03:06:34;37.17;;;26.97;;
4957;SDS011;2494;51.872;9.688;2023-05-07T03:09:19;35.70;;;28.63;;
4957;SDS011;2494;51.872;9.688;2023-05-07T03:12:05;34.73;;;26.27;;
4957;SDS011;2494;51.872;9.688;2023-05-07T03:14:50;33.10;;;26.90;;
4957;SDS011;2494;51.872;9.688;2023-05-07T03:17:35;41.40;;;30.07;;
4957;SDS011;2494;51.872;9.688;2023-05-07T03:20:22;36.60;;;27.30;;
4957;SDS011;2494;51.872;9.688;2023-05-07T03:23:07;33.17;;;25.80;;
4957;SDS011;2494;51.872;9.688;2023-05-07T03:25:52;31.23;;;26.53;;
4957;SDS011;2494;51.872;9.688;2023-05-07T03:28:37;35.00;;;25.37;;
4957;SDS011;2494;51.872;9.688;2023-05-07T03:31:22;40.70;;;26.37;;
4957;SDS011;2494;51.872;9.688;2023-05-07T03:34:07;33.47;;;25.20;;
4957;SDS011;2494;51.872;9.688;2023-05-07T03:36:53;32.77;;;25.80;;
4957;SDS011;2494;51.872;9.688;2023-05-07T03:39:39;33.77;;;24.30;;
4957;SDS011;2494;51.872;9.688;2023-05-07T03:42:25;31.70;;;22.43;;
4957;SDS011;2494;51.872;9.688;2023-05-07T03:45:10;33.03;;;23.57;;
4957;SDS011;2494;51.872;9.688;2023-05-07T03:47:55;30.83;;;22.20;;
4957;SDS011;2494;51.872;9.688;2023-05-07T03:50:41;30.37;;;23.10;;
4957;SDS011;2494;51.872;9.688;2023-05-07T03:53:27;33.97;;;24.50;;
4957;SDS011;2494;51.872;9.688;2023-05-07T03:56:13;28.50;;;22.23;;
4957;SDS011;2494;51.872;9.688;2023-05-07T03:58:59;27.03;;;21.30;;
4957;SDS011;2494;51.872;9.688;2023-05-07T04:01:45;31.53;;;23.33;;
4957;SDS011;2494;51.872;9.688;2023-05-07T04:04:30;25.47;;;20.13;;
4957;SDS011;2494;51.872;9.688;2023-05-07T04:07:16;29.73;;;23.43;;
4957;SDS011;2494;51.872;9.688;2023-05-07T04:10:03;26.60;;;20.90;;
4957;SDS011;2494;51.872;9.688;2023-05-07T04:12:49;27.50;;;21.97;;
4957;SDS011;2494;51.872;9.688;2023-05-07T04:15:35;31.07;;;21.67;;
4957;SDS011;2494;51.872;9.688;2023-05-07T04:18:21;25.90;;;19.93;;
4957;SDS011;2494;51.872;9.688;2023-05-07T04:21:07;28.90;;;20.83;;
4957;SDS011;2494;51.872;9.688;2023-05-07T04:23:58;25.90;;;20.30;;
4957;SDS011;2494;51.872;9.688;2023-05-07T04:26:44;27.30;;;20.67;;
4957;SDS011;2494;51.872;9.688;2023-05-07T04:29:29;24.80;;;19.80;;
4957;SDS011;2494;51.872;9.688;2023-05-07T04:32:15;27.87;;;22.03;;
4957;SDS011;2494;51.872;9.688;2023-05-07T04:35:01;33.27;;;21.90;;
4957;SDS011;2494;51.872;9.688;2023-05-07T04:37:46;32.30;;;22.40;;
4957;SDS011;2494;51.872;9.688;2023-05-07T04:40:31;32.43;;;21.97;;
4957;SDS011;2494;51.872;9.688;2023-05-07T04:43:19;30.50;;;22.60;;
4957;SDS011;2494;51.872;9.688;2023-05-07T04:46:05;27.27;;;21.03;;
4957;SDS011;2494;51.872;9.688;2023-05-07T04:48:50;25.87;;;19.97;;
4957;SDS011;2494;51.872;9.688;2023-05-07T04:51:36;27.13;;;19.37;;
4957;SDS011;2494;51.872;9.688;2023-05-07T04:54:22;19.70;;;17.50;;
4957;SDS011;2494;51.872;9.688;2023-05-07T04:57:07;26.87;;;18.27;;
4957;SDS011;2494;51.872;9.688;2023-05-07T04:59:54;19.53;;;15.70;;
4957;SDS011;2494;51.872;9.688;2023-05-07T05:02:39;21.73;;;17.17;;
4957;SDS011;2494;51.872;9.688;2023-05-07T05:05:25;21.53;;;16.33;;
4957;SDS011;2494;51.872;9.688;2023-05-07T05:08:10;18.60;;;15.07;;
4957;SDS011;2494;51.872;9.688;2023-05-07T05:10:56;20.80;;;16.53;;
4957;SDS011;2494;51.872;9.688;2023-05-07T05:13:42;20.20;;;15.10;;
4957;SDS011;2494;51.872;9.688;2023-05-07T05:16:28;17.80;;;14.23;;
4957;SDS011;2494;51.872;9.688;2023-05-07T05:19:14;17.40;;;14.57;;
4957;SDS011;2494;51.872;9.688;2023-05-07T05:21:59;16.83;;;14.20;;
4957;SDS011;2494;51.872;9.688;2023-05-07T05:24:47;18.10;;;14.70;;
4957;SDS011;2494;51.872;9.688;2023-05-07T05:27:34;18.40;;;13.27;;
4957;SDS011;2494;51.872;9.688;2023-05-07T05:30:20;16.63;;;13.60;;
4957;SDS011;2494;51.872;9.688;2023-05-07T05:33:07;17.00;;;14.10;;
4957;SDS011;2494;51.872;9.688;2023-05-07T05:35:53;18.73;;;13.53;;
4957;SDS011;2494;51.872;9.688;2023-05-07T05:38:38;17.97;;;14.20;;
4957;SDS011;2494;51.872;9.688;2023-05-07T05:41:23;17.33;;;13.67;;
4957;SDS011;2494;51.872;9.688;2023-05-07T05:44:09;21.97;;;16.00;;
4957;SDS011;2494;51.872;9.688;2023-05-07T05:46:55;19.60;;;15.33;;
4957;SDS011;2494;51.872;9.688;2023-05-07T05:49:44;17.77;;;14.13;;
4957;SDS011;2494;51.872;9.688;2023-05-07T05:52:30;17.87;;;15.00;;
4957;SDS011;2494;51.872;9.688;2023-05-07T05:55:16;19.97;;;15.53;;
4957;SDS011;2494;51.872;9.688;2023-05-07T05:58:02;23.87;;;14.77;;
4957;SDS011;2494;51.872;9.688;2023-05-07T06:00:48;20.33;;;14.67;;
4957;SDS011;2494;51.872;9.688;2023-05-07T06:03:35;20.00;;;14.93;;
4957;SDS011;2494;51.872;9.688;2023-05-07T06:06:22;19.50;;;14.23;;
4957;SDS011;2494;51.872;9.688;2023-05-07T06:09:08;18.53;;;14.20;;
4957;SDS011;2494;51.872;9.688;2023-05-07T06:11:53;18.93;;;15.37;;
4957;SDS011;2494;51.872;9.688;2023-05-07T06:14:39;17.03;;;15.10;;
4957;SDS011;2494;51.872;9.688;2023-05-07T06:17:24;19.40;;;14.20;;
4957;SDS011;2494;51.872;9.688;2023-05-07T06:20:10;18.33;;;14.57;;
4957;SDS011;2494;51.872;9.688;2023-05-07T06:22:57;17.43;;;15.57;;
4957;SDS011;2494;51.872;9.688;2023-05-07T06:25:45;17.93;;;14.13;;
4957;SDS011;2494;51.872;9.688;2023-05-07T06:28:31;18.90;;;14.50;;
4957;SDS011;2494;51.872;9.688;2023-05-07T06:31:19;18.07;;;15.70;;
4957;SDS011;2494;51.872;9.688;2023-05-07T06:34:06;19.80;;;14.40;;
4957;SDS011;2494;51.872;9.688;2023-05-07T06:36:53;16.73;;;13.57;;
4957;SDS011;2494;51.872;9.688;2023-05-07T06:39:40;21.83;;;15.17;;
4957;SDS011;2494;51.872;9.688;2023-05-07T06:42:25;16.90;;;14.80;;
4957;SDS011;2494;51.872;9.688;2023-05-07T06:45:11;21.50;;;14.77;;
4957;SDS011;2494;51.872;9.688;2023-05-07T06:47:57;19.23;;;14.17;;
4957;SDS011;2494;51.872;9.688;2023-05-07T06:50:42;22.47;;;17.10;;
4957;SDS011;2494;51.872;9.688;2023-05-07T06:53:28;18.13;;;15.10;;
4957;SDS011;2494;51.872;9.688;2023-05-07T06:56:16;23.20;;;16.20;;
4957;SDS011;2494;51.872;9.688;2023-05-07T06:59:02;18.70;;;14.53;;
4957;SDS011;2494;51.872;9.688;2023-05-07T07:01:49;17.80;;;14.10;;
4957;SDS011;2494;51.872;9.688;2023-05-07T07:04:35;17.20;;;14.03;;
4957;SDS011;2494;51.872;9.688;2023-05-07T07:07:21;19.93;;;16.30;;
4957;SDS011;2494;51.872;9.688;2023-05-07T07:10:08;18.33;;;14.40;;
4957;SDS011;2494;51.872;9.688;2023-05-07T07:12:55;18.23;;;15.03;;
4957;SDS011;2494;51.872;9.688;2023-05-07T07:15:40;16.47;;;14.20;;
4957;SDS011;2494;51.872;9.688;2023-05-07T07:18:27;18.37;;;13.40;;
4957;SDS011;2494;51.872;9.688;2023-05-07T07:21:13;15.60;;;13.20;;
4957;SDS011;2494;51.872;9.688;2023-05-07T07:24:01;18.20;;;13.00;;
4957;SDS011;2494;51.872;9.688;2023-05-07T07:26:49;17.13;;;13.30;;
4957;SDS011;2494;51.872;9.688;2023-05-07T07:29:39;17.10;;;12.97;;
4957;SDS011;2494;51.872;9.688;2023-05-07T07:32:24;16.33;;;12.80;;
4957;SDS011;2494;51.872;9.688;2023-05-07T07:35:09;14.47;;;11.70;;
4957;SDS011;2494;51.872;9.688;2023-05-07T07:37:55;12.63;;;11.33;;
4957;SDS011;2494;51.872;9.688;2023-05-07T07:40:40;13.07;;;10.80;;
4957;SDS011;2494;51.872;9.688;2023-05-07T07:43:27;13.07;;;9.60;;
4957;SDS011;2494;51.872;9.688;2023-05-07T07:46:14;12.47;;;11.17;;
4957;SDS011;2494;51.872;9.688;2023-05-07T07:49:00;10.93;;;9.80;;
4957;SDS011;2494;51.872;9.688;2023-05-07T07:51:44;10.93;;;9.80;;
4957;SDS011;2494;51.872;9.688;2023-05-07T07:54:30;12.07;;;9.97;;
4957;SDS011;2494;51.872;9.688;2023-05-07T07:57:15;10.23;;;9.13;;
4957;SDS011;2494;51.872;9.688;2023-05-07T08:00:01;13.63;;;10.10;;
4957;SDS011;2494;51.872;9.688;2023-05-07T08:02:48;9.73;;;8.43;;
4957;SDS011;2494;51.872;9.688;2023-05-07T08:05:33;9.00;;;8.10;;
4957;SDS011;2494;51.872;9.688;2023-05-07T08:08:19;9.43;;;8.50;;
4957;SDS011;2494;51.872;9.688;2023-05-07T08:11:04;9.50;;;8.60;;
4957;SDS011;2494;51.872;9.688;2023-05-07T08:13:49;7.87;;;7.07;;
4957;SDS011;2494;51.872;9.688;2023-05-07T08:16:35;6.70;;;6.10;;
4957;SDS011;2494;51.872;9.688;2023-05-07T08:19:21;8.80;;;8.00;;
4957;SDS011;2494;51.872;9.688;2023-05-07T08:22:06;7.87;;;7.20;;
4957;SDS011;2494;51.872;9.688;2023-05-07T08:24:52;9.63;;;7.77;;
4957;SDS011;2494;51.872;9.688;2023-05-07T08:27:38;8.77;;;6.90;;
4957;SDS011;2494;51.872;9.688;2023-05-07T08:30:23;7.00;;;6.40;;
4957;SDS011;2494;51.872;9.688;2023-05-07T08:33:08;7.33;;;6.70;;
4957;SDS011;2494;51.872;9.688;2023-05-07T08:35:56;6.73;;;6.23;;
4957;SDS011;2494;51.872;9.688;2023-05-07T08:38:41;7.33;;;6.70;;
4957;SDS011;2494;51.872;9.688;2023-05-07T08:41:29;7.10;;;6.50;;
4957;SDS011;2494;51.872;9.688;2023-05-07T08:44:14;7.53;;;6.93;;
4957;SDS011;2494;51.872;9.688;2023-05-07T08:47:02;8.33;;;7.63;;
4957;SDS011;2494;51.872;9.688;2023-05-07T08:49:47;9.03;;;7.20;;
4957;SDS011;2494;51.872;9.688;2023-05-07T08:52:35;7.13;;;6.60;;
4957;SDS011;2494;51.872;9.688;2023-05-07T08:55:20;8.13;;;7.43;;
4957;SDS011;2494;51.872;9.688;2023-05-07T08:58:06;7.27;;;6.67;;
4957;SDS011;2494;51.872;9.688;2023-05-07T09:00:51;7.53;;;6.73;;
4957;SDS011;2494;51.872;9.688;2023-05-07T09:03:38;7.37;;;6.73;;
4957;SDS011;2494;51.872;9.688;2023-05-07T09:06:24;9.60;;;7.40;;
4957;SDS011;2494;51.872;9.688;2023-05-07T09:09:11;6.70;;;6.20;;
4957;SDS011;2494;51.872;9.688;2023-05-07T09:11:59;8.17;;;7.43;;
4957;SDS011;2494;51.872;9.688;2023-05-07T09:14:45;7.00;;;6.50;;
4957;SDS011;2494;51.872;9.688;2023-05-07T09:17:31;8.23;;;7.53;;
4957;SDS011;2494;51.872;9.688;2023-05-07T09:20:16;7.50;;;6.90;;
4957;SDS011;2494;51.872;9.688;2023-05-07T09:23:01;7.00;;;6.40;;
4957;SDS011;2494;51.872;9.688;2023-05-07T09:25:48;6.60;;;6.00;;
4957;SDS011;2494;51.872;9.688;2023-05-07T09:28:34;7.07;;;6.47;;
4957;SDS011;2494;51.872;9.688;2023-05-07T09:31:20;8.07;;;7.40;;
4957;SDS011;2494;51.872;9.688;2023-05-07T09:34:07;8.53;;;7.87;;
4957;SDS011;2494;51.872;9.688;2023-05-07T09:36:52;7.33;;;6.73;;
4957;SDS011;2494;51.872;9.688;2023-05-07T09:39:39;7.40;;;6.80;;
4957;SDS011;2494;51.872;9.688;2023-05-07T09:42:25;7.30;;;6.80;;
4957;SDS011;2494;51.872;9.688;2023-05-07T09:45:11;7.53;;;6.93;;
4957;SDS011;2494;51.872;9.688;2023-05-07T09:47:56;8.60;;;7.57;;
4957;SDS011;2494;51.872;9.688;2023-05-07T09:50:44;8.13;;;7.50;;
4957;SDS011;2494;51.872;9.688;2023-05-07T09:53:33;8.13;;;7.43;;
4957;SDS011;2494;51.872;9.688;2023-05-07T09:56:18;7.63;;;7.00;;
4957;SDS011;2494;51.872;9.688;2023-05-07T09:59:06;8.43;;;7.63;;
4957;SDS011;2494;51.872;9.688;2023-05-07T10:01:51;7.60;;;6.80;;
4957;SDS011;2494;51.872;9.688;2023-05-07T10:04:37;7.50;;;6.80;;
4957;SDS011;2494;51.872;9.688;2023-05-07T10:07:22;8.10;;;7.40;;
4957;SDS011;2494;51.872;9.688;2023-05-07T10:10:09;8.47;;;7.77;;
4957;SDS011;2494;51.872;9.688;2023-05-07T10:13:02;8.97;;;8.10;;
4957;SDS011;2494;51.872;9.688;2023-05-07T10:15:51;9.90;;;8.90;;
4957;SDS011;2494;51.872;9.688;2023-05-07T10:18:37;8.83;;;8.00;;
4957;SDS011;2494;51.872;9.688;2023-05-07T10:21:24;9.63;;;8.33;;
4957;SDS011;2494;51.872;9.688;2023-05-07T10:24:16;8.67;;;7.97;;
4957;SDS011;2494;51.872;9.688;2023-05-07T10:27:04;8.10;;;7.50;;
4957;SDS011;2494;51.872;9.688;2023-05-07T10:29:52;7.90;;;7.17;;
4957;SDS011;2494;51.872;9.688;2023-05-07T10:32:42;7.90;;;7.20;;
4957;SDS011;2494;51.872;9.688;2023-05-07T10:35:29;8.17;;;7.57;;
4957;SDS011;2494;51.872;9.688;2023-05-07T10:38:15;8.73;;;7.87;;
4957;SDS011;2494;51.872;9.688;2023-05-07T10:41:01;8.77;;;8.07;;
4957;SDS011;2494;51.872;9.688;2023-05-07T10:43:49;8.90;;;8.20;;
4957;SDS011;2494;51.872;9.688;2023-05-07T10:46:34;10.80;;;9.90;;
4957;SDS011;2494;51.872;9.688;2023-05-07T10:49:21;10.03;;;9.23;;
4957;SDS011;2494;51.872;9.688;2023-05-07T10:52:13;10.80;;;9.53;;
4957;SDS011;2494;51.872;9.688;2023-05-07T11:01:05;10.30;;;9.30;;
4957;SDS011;2494;51.872;9.688;2023-05-07T11:04:12;10.40;;;9.40;;
4957;SDS011;2494;51.872;9.688;2023-05-07T11:10:07;11.53;;;10.53;;
4957;SDS011;2494;51.872;9.688;2023-05-07T11:12:53;10.47;;;9.47;;
4957;SDS011;2494;51.872;9.688;2023-05-07T11:15:42;11.43;;;10.43;;
4957;SDS011;2494;51.872;9.688;2023-05-07T11:18:41;11.87;;;10.77;;
4957;SDS011;2494;51.872;9.688;2023-05-07T11:21:31;12.30;;;11.20;;
4957;SDS011;2494;51.872;9.688;2023-05-07T11:24:16;11.10;;;10.20;;
4957;SDS011;2494;51.872;9.688;2023-05-07T11:27:03;13.00;;;11.63;;
4957;SDS011;2494;51.872;9.688;2023-05-07T11:29:49;10.60;;;9.80;;
4957;SDS011;2494;51.872;9.688;2023-05-07T11:32:35;12.93;;;11.63;;
4957;SDS011;2494;51.872;9.688;2023-05-07T11:35:22;11.27;;;10.27;;
4957;SDS011;2494;51.872;9.688;2023-05-07T11:38:07;13.00;;;11.80;;
4957;SDS011;2494;51.872;9.688;2023-05-07T11:40:55;11.77;;;10.77;;
4957;SDS011;2494;51.872;9.688;2023-05-07T11:43:54;10.93;;;9.90;;
4957;SDS011;2494;51.872;9.688;2023-05-07T11:46:42;12.13;;;11.03;;
4957;SDS011;2494;51.872;9.688;2023-05-07T11:49:28;10.90;;;10.03;;
4957;SDS011;2494;51.872;9.688;2023-05-07T11:52:13;11.80;;;10.70;;
4957;SDS011;2494;51.872;9.688;2023-05-07T11:54:59;12.27;;;11.20;;
4957;SDS011;2494;51.872;9.688;2023-05-07T11:57:45;10.87;;;9.97;;
4957;SDS011;2494;51.872;9.688;2023-05-07T12:00:31;11.80;;;10.80;;
4957;SDS011;2494;51.872;9.688;2023-05-07T12:03:16;12.73;;;11.63;;
4957;SDS011;2494;51.872;9.688;2023-05-07T12:06:02;10.37;;;9.57;;
4957;SDS011;2494;51.872;9.688;2023-05-07T12:08:48;13.90;;;12.60;;
4957;SDS011;2494;51.872;9.688;2023-05-07T12:11:33;13.20;;;11.90;;
4957;SDS011;2494;51.872;9.688;2023-05-07T12:14:19;11.83;;;10.70;;
4957;SDS011;2494;51.872;9.688;2023-05-07T12:17:05;11.33;;;10.43;;
4957;SDS011;2494;51.872;9.688;2023-05-07T12:19:51;13.13;;;11.93;;
4957;SDS011;2494;51.872;9.688;2023-05-07T12:22:37;11.93;;;10.83;;
4957;SDS011;2494;51.872;9.688;2023-05-07T12:25:23;12.77;;;11.53;;
4957;SDS011;2494;51.872;9.688;2023-05-07T12:28:12;13.70;;;12.30;;
4957;SDS011;2494;51.872;9.688;2023-05-07T12:30:57;13.27;;;12.07;;
4957;SDS011;2494;51.872;9.688;2023-05-07T12:33:44;14.03;;;12.80;;
4957;SDS011;2494;51.872;9.688;2023-05-07T12:36:36;13.77;;;12.53;;
4957;SDS011;2494;51.872;9.688;2023-05-07T12:39:21;13.90;;;12.60;;
4957;SDS011;2494;51.872;9.688;2023-05-07T12:42:06;13.43;;;12.30;;
4957;SDS011;2494;51.872;9.688;2023-05-07T12:44:52;14.37;;;13.07;;
4957;SDS011;2494;51.872;9.688;2023-05-07T12:47:43;12.70;;;11.50;;
4957;SDS011;2494;51.872;9.688;2023-05-07T12:50:32;13.43;;;12.23;;
4957;SDS011;2494;51.872;9.688;2023-05-07T12:53:20;13.60;;;12.30;;
4957;SDS011;2494;51.872;9.688;2023-05-07T12:56:06;13.50;;;12.30;;
4957;SDS011;2494;51.872;9.688;2023-05-07T12:58:51;13.67;;;12.33;;
4957;SDS011;2494;51.872;9.688;2023-05-07T13:01:36;11.30;;;10.20;;
4957;SDS011;2494;51.872;9.688;2023-05-07T13:04:23;13.07;;;11.97;;
4957;SDS011;2494;51.872;9.688;2023-05-07T13:07:11;13.50;;;12.30;;
4957;SDS011;2494;51.872;9.688;2023-05-07T13:09:56;13.67;;;12.47;;
4957;SDS011;2494;51.872;9.688;2023-05-07T13:12:42;14.00;;;12.70;;
4957;SDS011;2494;51.872;9.688;2023-05-07T13:15:27;15.83;;;14.20;;
4957;SDS011;2494;51.872;9.688;2023-05-07T13:18:15;14.90;;;13.50;;
4957;SDS011;2494;51.872;9.688;2023-05-07T13:21:04;13.13;;;11.93;;
4957;SDS011;2494;51.872;9.688;2023-05-07T13:23:53;12.83;;;11.67;;
4957;SDS011;2494;51.872;9.688;2023-05-07T13:26:38;14.30;;;12.77;;
4957;SDS011;2494;51.872;9.688;2023-05-07T13:29:24;14.90;;;13.70;;
4957;SDS011;2494;51.872;9.688;2023-05-07T13:32:13;14.03;;;12.73;;
4957;SDS011;2494;51.872;9.688;2023-05-07T13:35:02;13.70;;;12.40;;
4957;SDS011;2494;51.872;9.688;2023-05-07T13:37:48;12.90;;;11.70;;
4957;SDS011;2494;51.872;9.688;2023-05-07T13:40:35;13.93;;;12.73;;
4957;SDS011;2494;51.872;9.688;2023-05-07T13:43:20;14.20;;;12.90;;
4957;SDS011;2494;51.872;9.688;2023-05-07T13:46:05;15.70;;;14.47;;
4957;SDS011;2494;51.872;9.688;2023-05-07T13:48:51;14.23;;;13.03;;
4957;SDS011;2494;51.872;9.688;2023-05-07T13:51:36;15.03;;;13.70;;
4957;SDS011;2494;51.872;9.688;2023-05-07T13:54:22;14.20;;;13.03;;
4957;SDS011;2494;51.872;9.688;2023-05-07T13:57:21;13.33;;;12.00;;
4957;SDS011;2494;51.872;9.688;2023-05-07T14:00:07;13.47;;;12.27;;
4957;SDS011;2494;51.872;9.688;2023-05-07T14:02:52;13.80;;;12.50;;
4957;SDS011;2494;51.872;9.688;2023-05-07T14:05:38;13.20;;;12.03;;
4957;SDS011;2494;51.872;9.688;2023-05-07T14:08:24;13.80;;;12.60;;
4957;SDS011;2494;51.872;9.688;2023-05-07T14:11:09;12.60;;;11.50;;
4957;SDS011;2494;51.872;9.688;2023-05-07T14:13:56;13.57;;;12.47;;
4957;SDS011;2494;51.872;9.688;2023-05-07T14:16:45;13.80;;;12.60;;
4957;SDS011;2494;51.872;9.688;2023-05-07T14:19:36;13.47;;;12.37;;
4957;SDS011;2494;51.872;9.688;2023-05-07T14:22:26;12.63;;;11.53;;
4957;SDS011;2494;51.872;9.688;2023-05-07T14:25:11;12.97;;;11.87;;
4957;SDS011;2494;51.872;9.688;2023-05-07T14:27:57;13.57;;;12.37;;
4957;SDS011;2494;51.872;9.688;2023-05-07T14:30:43;13.10;;;12.10;;
4957;SDS011;2494;51.872;9.688;2023-05-07T14:33:28;13.17;;;12.17;;
4957;SDS011;2494;51.872;9.688;2023-05-07T14:36:13;11.87;;;10.83;;
4957;SDS011;2494;51.872;9.688;2023-05-07T14:38:59;12.70;;;11.60;;
4957;SDS011;2494;51.872;9.688;2023-05-07T14:41:44;15.10;;;13.77;;
4957;SDS011;2494;51.872;9.688;2023-05-07T14:44:29;13.07;;;12.10;;
4957;SDS011;2494;51.872;9.688;2023-05-07T14:47:17;13.30;;;12.20;;
4957;SDS011;2494;51.872;9.688;2023-05-07T14:50:02;13.73;;;12.47;;
4957;SDS011;2494;51.872;9.688;2023-05-07T14:52:47;14.30;;;13.20;;
4957;SDS011;2494;51.872;9.688;2023-05-07T14:55:33;15.17;;;13.70;;
4957;SDS011;2494;51.872;9.688;2023-05-07T14:58:18;12.93;;;11.73;;
4957;SDS011;2494;51.872;9.688;2023-05-07T15:01:04;13.47;;;12.37;;
4957;SDS011;2494;51.872;9.688;2023-05-07T15:03:51;12.63;;;11.63;;
4957;SDS011;2494;51.872;9.688;2023-05-07T15:06:36;13.80;;;12.70;;
4957;SDS011;2494;51.872;9.688;2023-05-07T15:09:22;12.50;;;11.20;;
4957;SDS011;2494;51.872;9.688;2023-05-07T15:12:07;12.47;;;11.43;;
4957;SDS011;2494;51.872;9.688;2023-05-07T15:14:52;13.67;;;12.50;;
4957;SDS011;2494;51.872;9.688;2023-05-07T15:17:38;13.60;;;12.50;;
4957;SDS011;2494;51.872;9.688;2023-05-07T15:20:25;14.40;;;13.27;;
4957;SDS011;2494;51.872;9.688;2023-05-07T15:23:10;13.53;;;12.50;;
4957;SDS011;2494;51.872;9.688;2023-05-07T15:25:57;14.83;;;13.47;;
4957;SDS011;2494;51.872;9.688;2023-05-07T15:28:43;12.00;;;11.10;;
4957;SDS011;2494;51.872;9.688;2023-05-07T15:31:29;14.33;;;13.20;;
4957;SDS011;2494;51.872;9.688;2023-05-07T15:34:15;13.80;;;12.80;;
4957;SDS011;2494;51.872;9.688;2023-05-07T15:37:02;12.50;;;11.50;;
4957;SDS011;2494;51.872;9.688;2023-05-07T15:39:47;13.40;;;12.27;;
4957;SDS011;2494;51.872;9.688;2023-05-07T15:42:32;12.90;;;11.90;;
4957;SDS011;2494;51.872;9.688;2023-05-07T15:45:18;12.53;;;11.53;;
4957;SDS011;2494;51.872;9.688;2023-05-07T15:48:03;13.37;;;12.23;;
4957;SDS011;2494;51.872;9.688;2023-05-07T15:50:49;13.63;;;12.63;;
4957;SDS011;2494;51.872;9.688;2023-05-07T15:53:35;14.10;;;13.00;;
4957;SDS011;2494;51.872;9.688;2023-05-07T15:56:21;12.43;;;11.43;;
4957;SDS011;2494;51.872;9.688;2023-05-07T15:59:06;13.40;;;12.50;;
4957;SDS011;2494;51.872;9.688;2023-05-07T16:01:53;13.27;;;12.27;;
4957;SDS011;2494;51.872;9.688;2023-05-07T16:04:41;13.27;;;12.27;;
4957;SDS011;2494;51.872;9.688;2023-05-07T16:07:26;12.87;;;11.87;;
4957;SDS011;2494;51.872;9.688;2023-05-07T16:10:13;13.07;;;12.07;;
4957;SDS011;2494;51.872;9.688;2023-05-07T16:12:58;12.17;;;11.30;;
4957;SDS011;2494;51.872;9.688;2023-05-07T16:15:45;12.40;;;11.50;;
4957;SDS011;2494;51.872;9.688;2023-05-07T16:18:31;11.07;;;10.27;;
4957;SDS011;2494;51.872;9.688;2023-05-07T16:21:16;11.70;;;10.73;;
4957;SDS011;2494;51.872;9.688;2023-05-07T16:24:01;11.27;;;10.57;;
4957;SDS011;2494;51.872;9.688;2023-05-07T16:26:48;10.77;;;10.07;;
4957;SDS011;2494;51.872;9.688;2023-05-07T16:29:33;10.17;;;9.47;;
4957;SDS011;2494;51.872;9.688;2023-05-07T16:32:18;10.97;;;10.23;;
4957;SDS011;2494;51.872;9.688;2023-05-07T16:35:03;11.67;;;10.57;;
4957;SDS011;2494;51.872;9.688;2023-05-07T16:37:49;11.60;;;10.83;;
4957;SDS011;2494;51.872;9.688;2023-05-07T16:40:36;9.87;;;9.27;;
4957;SDS011;2494;51.872;9.688;2023-05-07T16:43:23;10.27;;;9.57;;
4957;SDS011;2494;51.872;9.688;2023-05-07T16:46:08;11.20;;;10.40;;
4957;SDS011;2494;51.872;9.688;2023-05-07T16:48:53;11.70;;;10.90;;
4957;SDS011;2494;51.872;9.688;2023-05-07T16:51:39;11.50;;;10.70;;
4957;SDS011;2494;51.872;9.688;2023-05-07T16:54:26;12.83;;;11.93;;
4957;SDS011;2494;51.872;9.688;2023-05-07T16:57:11;13.20;;;12.20;;